createdAt,value
2019-03-06T00:01:11.435Z,100.00
2019-03-06T00:03:42.530Z,100.00
2019-03-06T00:06:16.668Z,100.00
2019-03-06T00:08:42.373Z,100.00
2019-03-06T00:11:13.358Z,100.00
2019-03-06T00:13:43.206Z,100.00
2019-03-06T00:16:13.114Z,100.00
2019-03-06T00:18:44.269Z,100.00
2019-03-06T00:21:14.031Z,100.00
2019-03-06T00:23:44.006Z,100.00
2019-03-06T00:26:13.995Z,100.00
2019-03-06T00:28:43.830Z,100.00
2019-03-06T00:31:13.706Z,100.00
2019-03-06T00:33:43.678Z,100.00
2019-03-06T00:36:19.565Z,100.00
2019-03-06T00:38:48.854Z,100.00
2019-03-06T00:41:27.095Z,100.00
2019-03-06T00:43:56.815Z,100.00
2019-03-06T00:46:26.973Z,100.00
2019-03-06T00:48:56.759Z,100.00
2019-03-06T00:51:26.641Z,100.00
2019-03-06T00:53:56.750Z,100.00
2019-03-06T00:56:26.488Z,100.00
2019-03-06T00:58:56.293Z,100.00
2019-03-06T01:01:26.422Z,100.00
2019-03-06T01:03:57.242Z,100.00
2019-03-06T01:06:28.474Z,100.00
2019-03-06T01:08:58.210Z,100.00
2019-03-06T01:11:28.118Z,100.00
2019-03-06T01:13:58.354Z,100.00
2019-03-06T01:16:29.087Z,100.00
2019-03-06T01:18:59.215Z,100.00
2019-03-06T01:21:29.506Z,100.00
2019-03-06T01:23:59.443Z,100.00
2019-03-06T01:26:30.199Z,100.00
2019-03-06T01:28:59.950Z,100.00
2019-03-06T01:31:30.426Z,100.00
2019-03-06T01:34:07.366Z,100.00
2019-03-06T01:36:50.091Z,100.00
2019-03-06T01:39:30.618Z,100.00
2019-03-06T01:42:20.633Z,100.00
2019-03-06T01:44:56.386Z,100.00
2019-03-06T01:47:26.214Z,100.00
2019-03-06T01:49:56.932Z,100.00
2019-03-06T01:52:27.155Z,100.00
2019-03-06T01:54:56.858Z,100.00
2019-03-06T01:57:26.722Z,100.00
2019-03-06T01:59:56.931Z,100.00
2019-03-06T02:02:26.846Z,100.00
2019-03-06T02:04:56.770Z,100.00
2019-03-06T02:07:27.074Z,100.00
2019-03-06T02:09:57.178Z,100.00
2019-03-06T02:15:48.487Z,100.00
2019-03-06T02:18:18.263Z,100.00
2019-03-06T02:20:48.003Z,100.00
2019-03-06T02:23:18.121Z,100.00
2019-03-06T02:25:47.857Z,100.00
2019-03-06T02:28:17.798Z,100.00
2019-03-06T02:30:47.627Z,100.00
2019-03-06T02:33:17.589Z,100.00
2019-03-06T02:35:47.392Z,100.00
2019-03-06T02:38:17.334Z,100.00
2019-03-06T02:40:48.048Z,100.00
2019-03-06T02:43:18.259Z,100.00
2019-03-06T02:45:48.079Z,100.00
2019-03-06T02:48:17.889Z,100.00
2019-03-06T02:50:47.843Z,100.00
2019-03-06T02:53:19.044Z,100.00
2019-03-06T02:55:48.930Z,100.00
2019-03-06T02:58:22.634Z,100.00
2019-03-06T03:00:58.117Z,100.00
2019-03-06T03:03:53.095Z,100.00
2019-03-06T03:06:30.352Z,100.00
2019-03-06T03:09:00.330Z,100.00
2019-03-06T03:11:30.222Z,100.00
2019-03-06T03:14:00.041Z,100.00
2019-03-06T03:16:30.075Z,100.00
2019-03-06T03:18:59.881Z,100.00
2019-03-06T03:21:29.617Z,100.00
2019-03-06T03:23:59.384Z,100.00
2019-03-06T03:26:29.512Z,100.00
2019-03-06T03:28:59.426Z,100.00
2019-03-06T03:31:30.223Z,100.00
2019-03-06T03:34:00.292Z,100.00
2019-03-06T03:36:30.423Z,100.00
2019-03-06T03:39:00.073Z,100.00
2019-03-06T03:41:29.679Z,100.00
2019-03-06T03:43:59.920Z,100.00
2019-03-06T03:46:29.795Z,100.00
2019-03-06T03:48:59.493Z,100.00
2019-03-06T03:51:29.555Z,100.00
2019-03-06T03:53:59.293Z,100.00
2019-03-06T03:56:28.967Z,100.00
2019-03-06T03:58:59.294Z,100.00
2019-03-06T04:01:29.156Z,100.00
2019-03-06T04:03:58.674Z,100.00
2019-03-06T04:06:28.409Z,100.00
2019-03-06T04:08:59.044Z,100.00
2019-03-06T04:11:29.586Z,100.00
2019-03-06T04:13:59.048Z,100.00
2019-03-06T04:16:29.242Z,100.00
2019-03-06T04:18:59.086Z,100.00
2019-03-06T04:21:28.641Z,100.00
2019-03-06T04:23:58.664Z,100.00
2019-03-06T04:26:28.263Z,100.00
2019-03-06T04:28:57.999Z,100.00
2019-03-06T04:31:31.618Z,100.00
2019-03-06T04:34:02.907Z,100.00
2019-03-06T04:36:32.724Z,100.00
2019-03-06T04:39:02.580Z,100.00
2019-03-06T04:41:32.189Z,100.00
2019-03-06T04:44:03.398Z,100.00
2019-03-06T04:46:34.121Z,100.00
2019-03-06T04:49:06.253Z,100.00
2019-03-06T04:51:37.636Z,100.00
2019-03-06T04:54:08.138Z,100.00
2019-03-06T04:56:38.078Z,100.00
2019-03-06T04:59:08.106Z,100.00
2019-03-06T05:01:37.588Z,100.00
2019-03-06T05:04:08.431Z,100.00
2019-03-06T05:06:38.350Z,100.00
2019-03-06T05:09:09.121Z,100.00
2019-03-06T05:11:38.259Z,100.00
2019-03-06T05:14:09.725Z,100.00
2019-03-06T05:16:46.294Z,100.00
2019-03-06T05:19:15.836Z,100.00
2019-03-06T05:21:45.584Z,100.00
2019-03-06T05:24:14.949Z,100.00
2019-03-06T05:26:45.229Z,100.00
2019-03-06T05:29:14.772Z,100.00
2019-03-06T05:31:53.963Z,100.00
2019-03-06T05:34:23.570Z,100.00
2019-03-06T05:37:10.359Z,100.00
2019-03-06T05:39:40.164Z,100.00
2019-03-06T05:42:09.901Z,100.00
2019-03-06T05:44:39.822Z,100.00
2019-03-06T05:47:09.564Z,100.00
2019-03-06T05:49:39.132Z,100.00
2019-03-06T05:52:10.165Z,100.00
2019-03-06T05:54:39.920Z,100.00
2019-03-06T05:57:09.586Z,100.00
2019-03-06T05:59:39.446Z,100.00
2019-03-06T06:02:08.582Z,100.00
2019-03-06T06:04:38.261Z,100.00
2019-03-06T06:07:07.714Z,100.00
2019-03-06T06:09:37.590Z,100.00
2019-03-06T06:12:06.946Z,100.00
2019-03-06T06:14:37.737Z,100.00
2019-03-06T06:17:07.574Z,100.00
2019-03-06T06:19:37.594Z,100.00
2019-03-06T06:22:14.290Z,100.00
2019-03-06T06:24:45.420Z,100.00
2019-03-06T06:27:14.542Z,100.00
2019-03-06T06:29:44.899Z,100.00
2019-03-06T06:32:13.994Z,100.00
2019-03-06T06:34:43.206Z,100.00
2019-03-06T06:37:12.371Z,100.00
2019-03-06T06:39:42.166Z,100.00
2019-03-06T06:42:11.530Z,100.00
2019-03-06T06:44:41.318Z,100.00
2019-03-06T06:47:10.820Z,100.00
2019-03-06T06:49:40.345Z,100.00
2019-03-06T06:52:20.154Z,100.00
2019-03-06T06:55:04.669Z,100.00
2019-03-06T06:57:54.599Z,100.00
2019-03-06T07:01:18.180Z,100.00
2019-03-06T07:04:38.232Z,100.00
2019-03-06T07:07:14.221Z,100.00
2019-03-06T07:09:53.107Z,100.00
2019-03-06T07:12:31.526Z,100.00
2019-03-06T07:15:05.716Z,100.00
2019-03-06T07:17:46.645Z,100.00
2019-03-06T07:20:53.118Z,100.00
2019-03-06T07:24:31.669Z,100.00
2019-03-06T07:27:07.018Z,100.00
2019-03-06T07:29:41.592Z,100.00
2019-03-06T07:32:20.970Z,100.00
2019-03-06T07:36:09.978Z,100.00
2019-03-06T07:38:39.972Z,100.00
2019-03-06T07:41:14.644Z,100.00
2019-03-06T07:44:29.916Z,100.00
2019-03-06T07:48:58.176Z,100.00
2019-03-06T07:52:36.238Z,100.00
2019-03-06T07:55:14.629Z,100.00
2019-03-06T07:59:56.603Z,100.00
2019-03-06T08:02:33.997Z,100.00
2019-03-06T08:05:03.662Z,100.00
2019-03-06T08:07:33.684Z,100.00
2019-03-06T08:10:08.814Z,100.00
2019-03-06T08:12:43.225Z,100.00
2019-03-06T08:15:44.463Z,100.00
2019-03-06T08:19:19.291Z,100.00
2019-03-06T08:21:55.942Z,100.00
2019-03-06T08:24:38.161Z,100.00
2019-03-06T08:27:07.627Z,100.00
2019-03-06T08:29:36.872Z,100.00
2019-03-06T08:32:17.349Z,100.00
2019-03-06T08:34:46.870Z,100.00
2019-03-06T08:37:17.548Z,100.00
2019-03-06T08:39:46.254Z,100.00
2019-03-06T08:42:16.211Z,100.00
2019-03-06T08:44:45.981Z,100.00
2019-03-06T08:48:22.112Z,100.00
2019-03-06T08:50:57.913Z,100.00
2019-03-06T08:53:37.028Z,100.00
2019-03-06T08:56:10.310Z,100.00
2019-03-06T08:58:50.085Z,100.00
2019-03-06T09:01:29.793Z,100.00
2019-03-06T09:04:06.073Z,100.00
2019-03-06T09:06:43.543Z,99.19
2019-03-06T09:11:20.419Z,98.73
2019-03-06T09:13:57.071Z,100.00
2019-03-06T09:25:53.278Z,100.00
2019-03-06T09:28:27.746Z,94.52
2019-03-06T09:31:04.522Z,93.73
2019-03-06T09:33:39.785Z,90.77
2019-03-06T09:36:29.798Z,89.33
2019-03-06T09:39:22.825Z,88.41
2019-03-06T09:41:57.121Z,89.21
2019-03-06T09:44:34.006Z,89.56
2019-03-06T09:47:15.154Z,90.19
2019-03-06T09:49:57.037Z,90.01
2019-03-06T09:53:40.223Z,89.92
2019-03-06T09:56:14.600Z,89.83
2019-03-06T09:58:49.193Z,89.50
2019-03-06T10:01:24.857Z,88.94
2019-03-06T10:06:04.934Z,88.37
2019-03-06T10:08:39.837Z,87.75
2019-03-06T10:11:29.678Z,87.47
2019-03-06T10:14:08.346Z,86.45
2019-03-06T10:16:49.198Z,84.76
2019-03-06T10:19:24.681Z,84.34
2019-03-06T10:21:53.931Z,83.92
2019-03-06T10:24:23.721Z,82.81
2019-03-06T10:26:53.200Z,83.67
2019-03-06T10:29:23.780Z,82.05
2019-03-06T10:31:53.426Z,81.41
2019-03-06T10:34:24.282Z,81.73
2019-03-06T10:36:54.326Z,80.62
2019-03-06T10:39:25.651Z,80.24
2019-03-06T10:41:58.078Z,79.76
2019-03-06T10:44:29.880Z,80.33
2019-03-06T10:46:58.054Z,79.12
2019-03-06T10:49:28.966Z,78.79
2019-03-06T10:51:59.566Z,79.29
2019-03-06T10:54:44.697Z,79.40
2019-03-06T10:57:31.352Z,79.61
2019-03-06T11:00:07.370Z,80.73
2019-03-06T11:02:51.935Z,80.56
2019-03-06T11:05:28.807Z,81.22
2019-03-06T11:10:45.065Z,81.85
2019-03-06T11:13:26.730Z,80.63
2019-03-06T11:15:58.604Z,80.51
2019-03-06T11:18:29.040Z,80.17
2019-03-06T11:21:00.952Z,78.70
2019-03-06T11:23:31.043Z,79.07
2019-03-06T11:26:01.933Z,78.24
2019-03-06T11:28:43.160Z,75.33
2019-03-06T11:31:20.207Z,73.83
2019-03-06T11:33:56.274Z,74.13
2019-03-06T11:36:39.106Z,74.33
2019-03-06T11:39:27.036Z,73.30
2019-03-06T11:42:15.323Z,74.01
2019-03-06T11:44:50.852Z,72.47
2019-03-06T11:47:26.030Z,72.63
2019-03-06T11:49:57.100Z,71.58
2019-03-06T11:52:27.050Z,71.81
2019-03-06T11:55:05.930Z,73.31
2019-03-06T11:57:36.298Z,72.39
2019-03-06T12:00:07.680Z,72.29
2019-03-06T12:02:39.422Z,72.87
2019-03-06T12:05:09.186Z,73.10
2019-03-06T12:07:38.585Z,72.88
2019-03-06T12:10:13.099Z,71.53
2019-03-06T12:12:42.614Z,71.30
2019-03-06T12:15:13.754Z,72.92
2019-03-06T12:17:42.971Z,74.12
2019-03-06T12:20:12.553Z,72.60
2019-03-06T12:22:44.969Z,72.84
2019-03-06T12:25:14.454Z,73.69
2019-03-06T12:27:44.232Z,73.89
2019-03-06T12:30:14.158Z,74.79
2019-03-06T12:32:45.557Z,72.95
2019-03-06T12:35:14.838Z,69.71
2019-03-06T12:37:47.097Z,69.41
2019-03-06T12:40:14.899Z,69.54
2019-03-06T12:42:47.402Z,69.30
2019-03-06T12:45:16.832Z,69.41
2019-03-06T12:47:55.206Z,69.97
2019-03-06T12:50:19.467Z,71.43
2019-03-06T12:52:48.699Z,72.92
2019-03-06T12:55:18.474Z,73.88
2019-03-06T12:57:47.653Z,71.64
2019-03-06T13:00:19.260Z,71.71
2019-03-06T13:02:49.682Z,71.79
2019-03-06T13:05:19.118Z,72.73
2019-03-06T13:07:48.370Z,72.65
2019-03-06T13:10:18.300Z,72.39
2019-03-06T13:12:49.033Z,72.79
2019-03-06T13:15:19.903Z,73.57
2019-03-06T13:17:49.494Z,72.44
2019-03-06T13:20:18.766Z,72.26
2019-03-06T13:22:48.082Z,71.94
2019-03-06T13:25:18.162Z,72.81
2019-03-06T13:27:54.411Z,73.68
2019-03-06T13:30:17.035Z,74.40
2019-03-06T13:32:52.153Z,74.32
2019-03-06T13:35:21.549Z,74.79
2019-03-06T13:37:51.478Z,74.56
2019-03-06T13:40:20.902Z,74.88
2019-03-06T13:42:50.085Z,75.73
2019-03-06T13:45:19.869Z,75.60
2019-03-06T13:47:51.055Z,75.37
2019-03-06T13:50:19.182Z,75.42
2019-03-06T13:52:48.966Z,75.71
2019-03-06T13:55:18.634Z,75.39
2019-03-06T13:57:47.963Z,74.55
2019-03-06T14:00:18.499Z,74.01
2019-03-06T14:02:47.987Z,73.78
2019-03-06T14:05:17.647Z,74.00
2019-03-06T14:07:56.055Z,73.63
2019-03-06T14:10:19.126Z,73.93
2019-03-06T14:12:47.407Z,73.69
2019-03-06T14:15:16.964Z,74.47
2019-03-06T14:17:46.594Z,74.84
2019-03-06T14:20:16.573Z,73.96
2019-03-06T14:22:47.926Z,73.97
2019-03-06T14:25:17.535Z,74.33
2019-03-06T14:27:47.466Z,74.38
2019-03-06T14:30:18.232Z,74.30
2019-03-06T14:32:47.406Z,73.89
2019-03-06T14:35:18.140Z,74.31
2019-03-06T14:37:47.670Z,75.15
2019-03-06T14:40:21.961Z,75.03
2019-03-06T14:42:51.627Z,75.01
2019-03-06T14:45:21.560Z,74.42
2019-03-06T14:47:51.038Z,73.73
2019-03-06T14:50:21.422Z,74.15
2019-03-06T14:52:51.247Z,74.63
2019-03-06T14:55:20.835Z,73.62
2019-03-06T14:57:50.577Z,73.64
2019-03-06T15:00:21.104Z,73.76
2019-03-06T15:02:51.096Z,73.93
2019-03-06T15:05:21.429Z,74.03
2019-03-06T15:07:51.245Z,73.80
2019-03-06T15:10:20.670Z,73.63
2019-03-06T15:12:51.748Z,72.87
2019-03-06T15:15:21.559Z,73.52
2019-03-06T15:17:50.918Z,73.51
2019-03-06T15:20:20.367Z,74.28
2019-03-06T15:22:51.744Z,75.22
2019-03-06T15:25:21.943Z,75.66
2019-03-06T15:27:51.942Z,75.79
2019-03-06T15:30:21.384Z,76.18
2019-03-06T15:32:50.864Z,76.61
2019-03-06T15:35:21.574Z,76.66
2019-03-06T15:37:50.982Z,76.62
2019-03-06T15:40:23.205Z,76.96
2019-03-06T15:42:53.650Z,77.31
2019-03-06T15:45:24.291Z,77.19
2019-03-06T15:47:53.741Z,77.18
2019-03-06T15:50:23.270Z,77.53
2019-03-06T15:52:52.644Z,77.37
2019-03-06T15:55:24.690Z,77.74
2019-03-06T15:57:54.119Z,77.79
2019-03-06T16:00:45.504Z,77.78
2019-03-06T16:03:07.305Z,77.41
2019-03-06T16:05:36.783Z,77.37
2019-03-06T16:08:07.190Z,77.05
2019-03-06T16:10:36.809Z,76.98
2019-03-06T16:13:08.599Z,76.90
2019-03-06T16:15:37.802Z,76.75
2019-03-06T16:18:08.267Z,76.88
2019-03-06T16:20:37.760Z,77.02
2019-03-06T16:23:10.527Z,76.58
2019-03-06T16:25:40.422Z,76.29
2019-03-06T16:28:14.399Z,76.07
2019-03-06T16:30:45.990Z,75.86
2019-03-06T16:33:16.143Z,75.56
2019-03-06T16:35:46.967Z,75.25
2019-03-06T16:38:17.332Z,74.91
2019-03-06T16:40:47.642Z,75.17
2019-03-06T16:43:17.144Z,74.25
2019-03-06T16:45:47.230Z,74.51
2019-03-06T16:48:17.873Z,74.06
2019-03-06T16:50:47.549Z,73.65
2019-03-06T16:53:17.896Z,73.10
2019-03-06T16:55:48.322Z,73.58
2019-03-06T16:58:17.670Z,74.01
2019-03-06T17:00:46.890Z,74.32
2019-03-06T17:03:17.431Z,74.49
2019-03-06T17:05:47.042Z,74.60
2019-03-06T17:08:16.563Z,74.67
2019-03-06T17:10:46.022Z,75.00
2019-03-06T17:13:15.654Z,74.33
2019-03-06T17:15:44.818Z,74.14
2019-03-06T17:18:14.640Z,74.21
2019-03-06T17:20:43.886Z,74.17
2019-03-06T17:23:13.075Z,74.00
2019-03-06T17:25:42.790Z,74.11
2019-03-06T17:28:12.142Z,73.87
2019-03-06T17:30:41.510Z,71.45
2019-03-06T17:33:11.506Z,70.12
2019-03-06T17:35:41.066Z,68.29
2019-03-06T17:38:11.131Z,67.72
2019-03-06T17:40:40.754Z,66.53
2019-03-06T17:43:10.238Z,66.35
2019-03-06T17:45:39.669Z,66.40
2019-03-06T17:48:09.592Z,66.94
2019-03-06T17:50:38.875Z,67.44
2019-03-06T17:53:08.658Z,67.76
2019-03-06T17:55:38.222Z,67.82
2019-03-06T17:58:12.469Z,68.41
2019-03-06T18:00:44.618Z,68.89
2019-03-06T18:03:16.243Z,69.52
2019-03-06T18:05:45.406Z,70.00
2019-03-06T18:08:15.211Z,70.15
2019-03-06T18:10:45.093Z,70.75
2019-03-06T18:13:15.866Z,71.24
2019-03-06T18:15:45.699Z,71.19
2019-03-06T18:18:15.157Z,71.67
2019-03-06T18:20:45.596Z,72.13
2019-03-06T18:23:14.982Z,72.56
2019-03-06T18:25:44.450Z,72.90
2019-03-06T18:28:13.695Z,73.08
2019-03-06T18:30:42.980Z,73.18
2019-03-06T18:33:12.426Z,73.54
2019-03-06T18:35:41.612Z,73.82
2019-03-06T18:38:12.321Z,72.79
2019-03-06T18:40:42.404Z,71.77
2019-03-06T18:43:11.659Z,70.47
2019-03-06T18:45:41.017Z,69.82
2019-03-06T18:48:15.663Z,68.82
2019-03-06T18:50:45.010Z,67.51
2019-03-06T18:53:14.257Z,66.33
2019-03-06T18:55:44.885Z,66.36
2019-03-06T18:58:14.866Z,66.05
2019-03-06T19:00:47.685Z,64.32
2019-03-06T19:03:17.930Z,64.16
2019-03-06T19:05:47.193Z,64.49
2019-03-06T19:08:16.503Z,65.39
2019-03-06T19:10:46.079Z,64.91
2019-03-06T19:13:15.306Z,64.84
2019-03-06T19:15:44.635Z,65.29
2019-03-06T19:18:14.099Z,65.36
2019-03-06T19:20:44.059Z,65.32
2019-03-06T19:23:13.640Z,65.74
2019-03-06T19:25:43.251Z,66.26
2019-03-06T19:28:12.419Z,66.08
2019-03-06T19:30:41.634Z,66.41
2019-03-06T19:33:12.671Z,66.49
2019-03-06T19:35:42.007Z,66.91
2019-03-06T19:38:13.101Z,67.33
2019-03-06T19:40:42.694Z,67.94
2019-03-06T19:43:12.495Z,67.74
2019-03-06T19:45:41.799Z,68.17
2019-03-06T19:48:12.432Z,68.41
2019-03-06T19:50:41.886Z,68.81
2019-03-06T19:53:11.230Z,69.29
2019-03-06T19:55:40.674Z,69.21
2019-03-06T19:58:10.455Z,69.48
2019-03-06T20:00:39.958Z,69.69
2019-03-06T20:03:09.775Z,69.64
2019-03-06T20:06:14.943Z,69.87
2019-03-06T20:08:44.702Z,69.77
2019-03-06T20:13:33.498Z,69.81
2019-03-06T20:16:06.564Z,69.98
2019-03-06T20:18:35.853Z,70.02
2019-03-06T20:21:06.771Z,70.21
2019-03-06T20:23:37.654Z,70.66
2019-03-06T20:26:13.846Z,70.99
2019-03-06T20:28:37.918Z,71.39
2019-03-06T20:31:07.933Z,71.59
2019-03-06T20:33:37.546Z,71.89
2019-03-06T20:36:06.842Z,72.20
2019-03-06T20:38:37.182Z,72.43
2019-03-06T20:41:07.401Z,72.63
2019-03-06T20:43:36.954Z,72.76
2019-03-06T20:46:06.493Z,72.76
2019-03-06T20:48:35.986Z,72.62
2019-03-06T20:51:05.977Z,72.70
2019-03-06T20:53:35.730Z,72.91
2019-03-06T20:56:05.117Z,72.89
2019-03-06T20:58:34.818Z,72.65
2019-03-06T21:01:04.698Z,72.83
2019-03-06T21:03:34.170Z,72.64
2019-03-06T21:06:03.773Z,72.11
2019-03-06T21:08:33.332Z,72.61
2019-03-06T21:11:02.558Z,72.54
2019-03-06T21:13:32.440Z,72.69
2019-03-06T21:16:02.235Z,72.75
2019-03-06T21:18:31.822Z,72.86
2019-03-06T21:21:01.107Z,72.96
2019-03-06T21:23:31.567Z,72.90
2019-03-06T21:26:01.294Z,73.10
2019-03-06T21:28:31.270Z,73.25
2019-03-06T21:31:01.294Z,73.35
2019-03-06T21:33:30.574Z,73.59
2019-03-06T21:35:59.733Z,73.81
2019-03-06T21:38:29.175Z,73.96
2019-03-06T21:40:58.377Z,74.08
2019-03-06T21:43:27.598Z,74.05
2019-03-06T21:45:57.070Z,74.26
2019-03-06T21:48:26.326Z,74.32
2019-03-06T21:50:55.982Z,74.29
2019-03-06T21:53:25.594Z,74.47
2019-03-06T21:55:55.082Z,74.68
2019-03-06T21:58:24.335Z,74.69
2019-03-06T22:00:53.751Z,74.71
2019-03-06T22:03:24.669Z,74.61
2019-03-06T22:05:52.293Z,74.65
2019-03-06T22:08:22.366Z,74.79
2019-03-06T22:10:51.628Z,74.73
2019-03-06T22:13:20.802Z,74.73
2019-03-06T22:15:50.230Z,74.79
2019-03-06T22:18:19.934Z,74.56
2019-03-06T22:20:49.238Z,74.67
2019-03-06T22:23:19.296Z,74.64
2019-03-06T22:25:48.003Z,74.78
2019-03-06T22:28:17.203Z,74.33
2019-03-06T22:30:46.671Z,74.62
2019-03-06T22:33:16.168Z,74.46
2019-03-06T22:35:45.813Z,74.60
2019-03-06T22:38:15.877Z,74.70
2019-03-06T22:40:45.340Z,74.63
2019-03-06T22:43:14.698Z,74.72
2019-03-06T22:45:44.754Z,74.59
2019-03-06T22:48:13.898Z,74.52
2019-03-06T22:50:43.130Z,74.47
2019-03-06T22:53:13.185Z,74.52
2019-03-06T22:55:42.639Z,74.40
2019-03-06T22:58:11.878Z,74.34
2019-03-06T23:00:51.474Z,74.08
2019-03-06T23:03:20.854Z,74.04
2019-03-06T23:05:50.214Z,74.05
2019-03-06T23:08:19.367Z,74.00
2019-03-06T23:10:48.720Z,73.90
2019-03-06T23:13:18.164Z,73.86
2019-03-06T23:15:47.380Z,73.62
2019-03-06T23:18:16.606Z,73.07
2019-03-06T23:20:46.143Z,73.15
2019-03-06T23:23:15.314Z,73.11
2019-03-06T23:25:44.450Z,72.95
2019-03-06T23:28:14.037Z,72.73
2019-03-06T23:30:43.414Z,72.63
2019-03-06T23:33:12.605Z,72.60
2019-03-06T23:35:42.473Z,72.64
2019-03-06T23:38:11.996Z,72.53
2019-03-06T23:40:41.190Z,72.24
2019-03-06T23:43:11.407Z,72.12
2019-03-06T23:45:41.282Z,72.10
2019-03-06T23:48:10.475Z,72.19
2019-03-06T23:50:40.181Z,71.93
2019-03-06T23:53:11.130Z,72.16
2019-03-06T23:55:40.446Z,71.98
2019-03-06T23:58:09.916Z,71.71
